sensor_id;sensor_type;location;lat;lon;timestamp;temperature;humidity
5246;DHT22;54412;51.206;6.888;2023-03-16T00:01:16;5.70;99.90
5246;DHT22;54412;51.206;6.888;2023-03-16T00:03:42;5.50;99.90
5246;DHT22;54412;51.206;6.888;2023-03-16T00:06:08;5.60;99.90
5246;DHT22;54412;51.206;6.888;2023-03-16T00:08:34;5.60;99.90
5246;DHT22;54412;51.206;6.888;2023-03-16T00:11:00;5.50;99.90
5246;DHT22;54412;51.206;6.888;2023-03-16T00:13:27;5.60;99.90
5246;DHT22;54412;51.206;6.888;2023-03-16T00:15:54;5.40;99.90
5246;DHT22;54412;51.206;6.888;2023-03-16T00:18:23;5.40;99.90
5246;DHT22;54412;51.206;6.888;2023-03-16T00:20:58;5.50;99.90
5246;DHT22;54412;51.206;6.888;2023-03-16T00:23:29;5.30;99.90
5246;DHT22;54412;51.206;6.888;2023-03-16T00:26:04;5.40;99.90
5246;DHT22;54412;51.206;6.888;2023-03-16T00:28:33;5.30;99.90
5246;DHT22;54412;51.206;6.888;2023-03-16T00:31:07;5.40;99.90
5246;DHT22;54412;51.206;6.888;2023-03-16T00:33:40;5.20;99.90
5246;DHT22;54412;51.206;6.888;2023-03-16T00:36:07;5.50;99.90
5246;DHT22;54412;51.206;6.888;2023-03-16T00:38:38;5.40;99.90
5246;DHT22;54412;51.206;6.888;2023-03-16T00:41:09;5.40;99.90
5246;DHT22;54412;51.206;6.888;2023-03-16T00:43:40;5.40;99.90
5246;DHT22;54412;51.206;6.888;2023-03-16T00:46:08;5.40;99.90
5246;DHT22;54412;51.206;6.888;2023-03-16T00:48:38;5.40;99.90
5246;DHT22;54412;51.206;6.888;2023-03-16T00:51:08;5.40;99.90
5246;DHT22;54412;51.206;6.888;2023-03-16T00:53:38;5.20;99.90
5246;DHT22;54412;51.206;6.888;2023-03-16T00:56:05;5.20;99.90
5246;DHT22;54412;51.206;6.888;2023-03-16T00:58:32;5.30;99.90
5246;DHT22;54412;51.206;6.888;2023-03-16T01:01:06;5.40;99.90
5246;DHT22;54412;51.206;6.888;2023-03-16T01:03:34;5.30;99.90
5246;DHT22;54412;51.206;6.888;2023-03-16T01:06:09;5.30;99.90
5246;DHT22;54412;51.206;6.888;2023-03-16T01:08:38;5.50;99.90
5246;DHT22;54412;51.206;6.888;2023-03-16T01:11:08;5.40;99.90
5246;DHT22;54412;51.206;6.888;2023-03-16T01:13:37;5.30;99.90
5246;DHT22;54412;51.206;6.888;2023-03-16T01:16:04;5.30;99.90
5246;DHT22;54412;51.206;6.888;2023-03-16T01:18:31;5.10;99.90
5246;DHT22;54412;51.206;6.888;2023-03-16T01:21:00;5.20;99.90
5246;DHT22;54412;51.206;6.888;2023-03-16T01:26:00;5.40;99.90
5246;DHT22;54412;51.206;6.888;2023-03-16T01:28:28;5.40;99.90
5246;DHT22;54412;51.206;6.888;2023-03-16T01:31:05;5.20;99.90
5246;DHT22;54412;51.206;6.888;2023-03-16T01:33:36;5.30;99.90
5246;DHT22;54412;51.206;6.888;2023-03-16T01:36:11;5.40;99.90
5246;DHT22;54412;51.206;6.888;2023-03-16T01:38:39;5.30;99.90
5246;DHT22;54412;51.206;6.888;2023-03-16T01:41:05;5.30;99.90
5246;DHT22;54412;51.206;6.888;2023-03-16T01:43:34;5.30;99.90
5246;DHT22;54412;51.206;6.888;2023-03-16T01:48:40;5.30;99.90
5246;DHT22;54412;51.206;6.888;2023-03-16T01:51:22;5.30;99.90
5246;DHT22;54412;51.206;6.888;2023-03-16T01:59:38;5.30;99.90
5246;DHT22;54412;51.206;6.888;2023-03-16T02:02:07;5.30;99.90
5246;DHT22;54412;51.206;6.888;2023-03-16T02:04:59;5.50;99.90
5246;DHT22;54412;51.206;6.888;2023-03-16T02:07:33;5.50;99.90
5246;DHT22;54412;51.206;6.888;2023-03-16T02:10:05;5.50;99.90
5246;DHT22;54412;51.206;6.888;2023-03-16T02:12:32;5.40;99.90
5246;DHT22;54412;51.206;6.888;2023-03-16T02:14:58;5.20;99.90
5246;DHT22;54412;51.206;6.888;2023-03-16T02:17:26;5.20;99.90
5246;DHT22;54412;51.206;6.888;2023-03-16T02:22:49;5.20;99.90
5246;DHT22;54412;51.206;6.888;2023-03-16T02:25:28;5.20;99.90
5246;DHT22;54412;51.206;6.888;2023-03-16T02:31:24;5.30;99.90
5246;DHT22;54412;51.206;6.888;2023-03-16T02:33:51;5.40;99.90
5246;DHT22;54412;51.206;6.888;2023-03-16T02:36:19;5.30;99.90
5246;DHT22;54412;51.206;6.888;2023-03-16T02:38:45;5.30;99.90
5246;DHT22;54412;51.206;6.888;2023-03-16T02:41:17;5.40;99.90
5246;DHT22;54412;51.206;6.888;2023-03-16T02:43:51;5.50;99.90
5246;DHT22;54412;51.206;6.888;2023-03-16T02:46:22;5.40;99.90
5246;DHT22;54412;51.206;6.888;2023-03-16T02:49:02;5.40;99.90
5246;DHT22;54412;51.206;6.888;2023-03-16T02:51:34;5.20;99.90
5246;DHT22;54412;51.206;6.888;2023-03-16T02:54:00;5.30;99.90
5246;DHT22;54412;51.206;6.888;2023-03-16T02:56:25;5.30;99.90
5246;DHT22;54412;51.206;6.888;2023-03-16T02:58:51;5.10;99.90
5246;DHT22;54412;51.206;6.888;2023-03-16T03:01:17;5.30;99.90
5246;DHT22;54412;51.206;6.888;2023-03-16T03:03:43;5.20;99.90
5246;DHT22;54412;51.206;6.888;2023-03-16T03:06:09;5.20;99.90
5246;DHT22;54412;51.206;6.888;2023-03-16T03:08:35;5.20;99.90
5246;DHT22;54412;51.206;6.888;2023-03-16T03:11:01;5.10;99.90
5246;DHT22;54412;51.206;6.888;2023-03-16T03:13:26;5.20;99.90
5246;DHT22;54412;51.206;6.888;2023-03-16T03:15:52;5.30;99.90
5246;DHT22;54412;51.206;6.888;2023-03-16T03:18:18;5.10;99.90
5246;DHT22;54412;51.206;6.888;2023-03-16T03:20:44;5.20;99.90
5246;DHT22;54412;51.206;6.888;2023-03-16T03:23:10;5.20;99.90
5246;DHT22;54412;51.206;6.888;2023-03-16T03:25:35;5.10;99.90
5246;DHT22;54412;51.206;6.888;2023-03-16T03:28:03;5.00;99.90
5246;DHT22;54412;51.206;6.888;2023-03-16T03:30:30;5.10;99.90
5246;DHT22;54412;51.206;6.888;2023-03-16T03:32:56;5.20;99.90
5246;DHT22;54412;51.206;6.888;2023-03-16T03:35:22;5.10;99.90
5246;DHT22;54412;51.206;6.888;2023-03-16T03:37:48;5.20;99.90
5246;DHT22;54412;51.206;6.888;2023-03-16T03:40:16;5.20;99.90
5246;DHT22;54412;51.206;6.888;2023-03-16T03:42:43;5.20;99.90
5246;DHT22;54412;51.206;6.888;2023-03-16T03:45:09;5.20;99.90
5246;DHT22;54412;51.206;6.888;2023-03-16T03:47:40;5.10;99.90
5246;DHT22;54412;51.206;6.888;2023-03-16T03:50:08;5.20;99.90
5246;DHT22;54412;51.206;6.888;2023-03-16T03:52:35;5.20;99.90
5246;DHT22;54412;51.206;6.888;2023-03-16T03:55:01;5.20;99.90
5246;DHT22;54412;51.206;6.888;2023-03-16T03:57:26;5.20;99.90
5246;DHT22;54412;51.206;6.888;2023-03-16T03:59:52;5.10;99.90
5246;DHT22;54412;51.206;6.888;2023-03-16T04:02:17;5.40;99.90
5246;DHT22;54412;51.206;6.888;2023-03-16T04:04:43;5.30;99.90
5246;DHT22;54412;51.206;6.888;2023-03-16T04:07:09;5.40;99.90
5246;DHT22;54412;51.206;6.888;2023-03-16T04:09:35;5.30;99.90
5246;DHT22;54412;51.206;6.888;2023-03-16T04:12:03;5.20;99.90
5246;DHT22;54412;51.206;6.888;2023-03-16T04:14:30;5.20;99.90
5246;DHT22;54412;51.206;6.888;2023-03-16T04:16:57;5.10;99.90
5246;DHT22;54412;51.206;6.888;2023-03-16T04:19:23;5.20;99.90
5246;DHT22;54412;51.206;6.888;2023-03-16T04:21:50;5.20;99.90
5246;DHT22;54412;51.206;6.888;2023-03-16T04:24:17;5.30;99.90
5246;DHT22;54412;51.206;6.888;2023-03-16T04:26:43;5.10;99.90
5246;DHT22;54412;51.206;6.888;2023-03-16T04:29:14;5.10;99.90
5246;DHT22;54412;51.206;6.888;2023-03-16T04:31:43;5.00;99.90
5246;DHT22;54412;51.206;6.888;2023-03-16T04:34:09;5.00;99.90
5246;DHT22;54412;51.206;6.888;2023-03-16T04:36:36;5.00;99.90
5246;DHT22;54412;51.206;6.888;2023-03-16T04:39:03;5.10;99.90
5246;DHT22;54412;51.206;6.888;2023-03-16T04:41:30;5.00;99.90
5246;DHT22;54412;51.206;6.888;2023-03-16T04:43:57;5.00;99.90
5246;DHT22;54412;51.206;6.888;2023-03-16T04:46:23;5.10;99.90
5246;DHT22;54412;51.206;6.888;2023-03-16T04:48:51;5.20;99.90
5246;DHT22;54412;51.206;6.888;2023-03-16T04:51:17;5.20;99.90
5246;DHT22;54412;51.206;6.888;2023-03-16T04:53:43;5.30;99.90
5246;DHT22;54412;51.206;6.888;2023-03-16T04:56:09;5.10;99.90
5246;DHT22;54412;51.206;6.888;2023-03-16T04:58:48;5.10;99.90
5246;DHT22;54412;51.206;6.888;2023-03-16T05:01:15;5.20;99.90
5246;DHT22;54412;51.206;6.888;2023-03-16T05:03:42;5.20;99.90
5246;DHT22;54412;51.206;6.888;2023-03-16T05:06:09;5.20;99.90
5246;DHT22;54412;51.206;6.888;2023-03-16T05:08:36;5.30;99.90
5246;DHT22;54412;51.206;6.888;2023-03-16T05:11:02;5.40;99.90
5246;DHT22;54412;51.206;6.888;2023-03-16T05:13:28;5.20;99.90
5246;DHT22;54412;51.206;6.888;2023-03-16T05:15:54;5.20;99.90
5246;DHT22;54412;51.206;6.888;2023-03-16T05:18:20;5.20;99.90
5246;DHT22;54412;51.206;6.888;2023-03-16T05:20:52;5.20;99.90
5246;DHT22;54412;51.206;6.888;2023-03-16T05:23:20;5.10;99.90
5246;DHT22;54412;51.206;6.888;2023-03-16T05:25:47;5.30;99.90
5246;DHT22;54412;51.206;6.888;2023-03-16T05:28:14;5.50;99.90
5246;DHT22;54412;51.206;6.888;2023-03-16T05:30:41;5.60;99.90
5246;DHT22;54412;51.206;6.888;2023-03-16T05:33:09;5.50;99.90
5246;DHT22;54412;51.206;6.888;2023-03-16T05:35:36;5.30;99.90
5246;DHT22;54412;51.206;6.888;2023-03-16T05:38:03;5.40;99.90
5246;DHT22;54412;51.206;6.888;2023-03-16T05:40:29;5.20;99.90
5246;DHT22;54412;51.206;6.888;2023-03-16T05:42:55;5.60;99.90
5246;DHT22;54412;51.206;6.888;2023-03-16T05:45:22;5.60;99.90
5246;DHT22;54412;51.206;6.888;2023-03-16T05:47:49;5.40;99.90
5246;DHT22;54412;51.206;6.888;2023-03-16T05:50:15;5.30;99.90
5246;DHT22;54412;51.206;6.888;2023-03-16T05:52:42;5.40;99.90
5246;DHT22;54412;51.206;6.888;2023-03-16T05:55:10;5.30;99.90
5246;DHT22;54412;51.206;6.888;2023-03-16T05:57:36;5.20;99.90
5246;DHT22;54412;51.206;6.888;2023-03-16T06:00:07;5.20;99.90
5246;DHT22;54412;51.206;6.888;2023-03-16T06:02:39;5.20;99.90
5246;DHT22;54412;51.206;6.888;2023-03-16T06:05:06;5.10;99.90
5246;DHT22;54412;51.206;6.888;2023-03-16T06:07:33;5.00;99.90
5246;DHT22;54412;51.206;6.888;2023-03-16T06:09:59;5.20;99.90
5246;DHT22;54412;51.206;6.888;2023-03-16T06:12:25;5.20;99.90
5246;DHT22;54412;51.206;6.888;2023-03-16T06:14:51;5.20;99.90
5246;DHT22;54412;51.206;6.888;2023-03-16T06:17:16;5.00;99.90
5246;DHT22;54412;51.206;6.888;2023-03-16T06:19:42;5.10;99.90
5246;DHT22;54412;51.206;6.888;2023-03-16T06:22:08;5.10;99.90
5246;DHT22;54412;51.206;6.888;2023-03-16T06:24:33;5.20;99.90
5246;DHT22;54412;51.206;6.888;2023-03-16T06:26:59;5.20;99.90
5246;DHT22;54412;51.206;6.888;2023-03-16T06:29:25;5.20;99.90
5246;DHT22;54412;51.206;6.888;2023-03-16T06:31:51;5.20;99.90
5246;DHT22;54412;51.206;6.888;2023-03-16T06:34:17;5.40;99.90
5246;DHT22;54412;51.206;6.888;2023-03-16T06:36:43;5.40;99.90
5246;DHT22;54412;51.206;6.888;2023-03-16T06:39:09;5.50;99.90
5246;DHT22;54412;51.206;6.888;2023-03-16T06:41:34;5.50;99.90
5246;DHT22;54412;51.206;6.888;2023-03-16T06:44:01;5.40;99.90
5246;DHT22;54412;51.206;6.888;2023-03-16T06:46:27;5.50;99.90
5246;DHT22;54412;51.206;6.888;2023-03-16T06:48:53;5.40;99.90
5246;DHT22;54412;51.206;6.888;2023-03-16T06:51:18;5.60;99.90
5246;DHT22;54412;51.206;6.888;2023-03-16T06:53:44;5.60;99.90
5246;DHT22;54412;51.206;6.888;2023-03-16T06:56:10;5.60;99.90
5246;DHT22;54412;51.206;6.888;2023-03-16T06:58:35;5.70;99.90
5246;DHT22;54412;51.206;6.888;2023-03-16T07:01:02;5.80;99.90
5246;DHT22;54412;51.206;6.888;2023-03-16T07:03:29;5.80;99.90
5246;DHT22;54412;51.206;6.888;2023-03-16T07:05:55;5.70;99.90
5246;DHT22;54412;51.206;6.888;2023-03-16T07:08:21;5.60;99.90
5246;DHT22;54412;51.206;6.888;2023-03-16T07:10:49;5.60;99.90
5246;DHT22;54412;51.206;6.888;2023-03-16T07:13:16;5.70;99.90
5246;DHT22;54412;51.206;6.888;2023-03-16T07:15:42;5.80;99.90
5246;DHT22;54412;51.206;6.888;2023-03-16T07:18:09;5.90;99.90
5246;DHT22;54412;51.206;6.888;2023-03-16T07:20:37;5.90;99.90
5246;DHT22;54412;51.206;6.888;2023-03-16T07:23:03;5.90;99.90
5246;DHT22;54412;51.206;6.888;2023-03-16T07:25:29;5.90;99.90
5246;DHT22;54412;51.206;6.888;2023-03-16T07:27:56;5.70;99.90
5246;DHT22;54412;51.206;6.888;2023-03-16T07:30:22;5.80;99.90
5246;DHT22;54412;51.206;6.888;2023-03-16T07:32:49;5.80;99.90
5246;DHT22;54412;51.206;6.888;2023-03-16T07:35:15;6.00;99.90
5246;DHT22;54412;51.206;6.888;2023-03-16T07:37:42;5.90;99.90
5246;DHT22;54412;51.206;6.888;2023-03-16T07:40:09;6.00;99.90
5246;DHT22;54412;51.206;6.888;2023-03-16T07:42:36;6.00;99.90
5246;DHT22;54412;51.206;6.888;2023-03-16T07:45:03;6.00;99.90
5246;DHT22;54412;51.206;6.888;2023-03-16T07:47:29;5.90;99.90
5246;DHT22;54412;51.206;6.888;2023-03-16T07:49:56;6.00;99.90
5246;DHT22;54412;51.206;6.888;2023-03-16T07:52:22;6.00;99.90
5246;DHT22;54412;51.206;6.888;2023-03-16T07:54:48;6.00;99.90
5246;DHT22;54412;51.206;6.888;2023-03-16T07:57:14;5.90;99.90
5246;DHT22;54412;51.206;6.888;2023-03-16T07:59:39;6.10;99.90
5246;DHT22;54412;51.206;6.888;2023-03-16T08:02:10;6.10;99.90
5246;DHT22;54412;51.206;6.888;2023-03-16T08:04:37;6.00;99.90
5246;DHT22;54412;51.206;6.888;2023-03-16T08:07:03;6.10;99.90
5246;DHT22;54412;51.206;6.888;2023-03-16T08:09:28;6.30;99.90
5246;DHT22;54412;51.206;6.888;2023-03-16T08:11:54;6.30;99.90
5246;DHT22;54412;51.206;6.888;2023-03-16T08:14:20;6.30;99.90
5246;DHT22;54412;51.206;6.888;2023-03-16T08:16:45;6.20;99.90
5246;DHT22;54412;51.206;6.888;2023-03-16T08:19:11;6.20;99.90
5246;DHT22;54412;51.206;6.888;2023-03-16T08:21:37;6.40;99.90
5246;DHT22;54412;51.206;6.888;2023-03-16T08:24:03;6.40;99.90
5246;DHT22;54412;51.206;6.888;2023-03-16T08:26:28;6.50;99.90
5246;DHT22;54412;51.206;6.888;2023-03-16T08:28:55;6.40;99.90
5246;DHT22;54412;51.206;6.888;2023-03-16T08:31:20;6.50;99.90
5246;DHT22;54412;51.206;6.888;2023-03-16T08:33:49;6.50;99.90
5246;DHT22;54412;51.206;6.888;2023-03-16T08:36:17;6.60;99.90
5246;DHT22;54412;51.206;6.888;2023-03-16T08:38:43;6.60;99.90
5246;DHT22;54412;51.206;6.888;2023-03-16T08:41:10;6.50;99.90
5246;DHT22;54412;51.206;6.888;2023-03-16T08:43:36;6.60;99.90
5246;DHT22;54412;51.206;6.888;2023-03-16T08:46:03;6.60;99.90
5246;DHT22;54412;51.206;6.888;2023-03-16T08:48:30;6.70;99.90
5246;DHT22;54412;51.206;6.888;2023-03-16T08:51:01;6.70;99.90
5246;DHT22;54412;51.206;6.888;2023-03-16T08:53:28;6.80;99.90
5246;DHT22;54412;51.206;6.888;2023-03-16T08:56:03;6.80;99.90
5246;DHT22;54412;51.206;6.888;2023-03-16T08:58:31;6.70;99.90
5246;DHT22;54412;51.206;6.888;2023-03-16T09:01:01;6.70;99.90
5246;DHT22;54412;51.206;6.888;2023-03-16T09:03:30;6.80;99.90
5246;DHT22;54412;51.206;6.888;2023-03-16T09:06:06;6.80;99.90
5246;DHT22;54412;51.206;6.888;2023-03-16T09:08:34;6.90;99.90
5246;DHT22;54412;51.206;6.888;2023-03-16T09:11:03;7.00;99.90
5246;DHT22;54412;51.206;6.888;2023-03-16T09:13:32;6.90;99.90
5246;DHT22;54412;51.206;6.888;2023-03-16T09:15:58;6.90;99.90
5246;DHT22;54412;51.206;6.888;2023-03-16T09:18:25;6.90;99.90
5246;DHT22;54412;51.206;6.888;2023-03-16T09:20:59;6.90;99.90
5246;DHT22;54412;51.206;6.888;2023-03-16T09:23:25;7.00;99.90
5246;DHT22;54412;51.206;6.888;2023-03-16T09:25:52;7.00;99.90
5246;DHT22;54412;51.206;6.888;2023-03-16T09:28:21;7.10;99.90
5246;DHT22;54412;51.206;6.888;2023-03-16T09:30:46;7.10;99.90
5246;DHT22;54412;51.206;6.888;2023-03-16T09:33:14;7.20;99.90
5246;DHT22;54412;51.206;6.888;2023-03-16T09:35:39;7.30;99.90
5246;DHT22;54412;51.206;6.888;2023-03-16T09:38:05;7.30;99.90
5246;DHT22;54412;51.206;6.888;2023-03-16T09:40:32;7.50;99.90
5246;DHT22;54412;51.206;6.888;2023-03-16T09:46:05;7.50;99.90
5246;DHT22;54412;51.206;6.888;2023-03-16T09:48:38;7.60;99.90
5246;DHT22;54412;51.206;6.888;2023-03-16T09:51:12;7.60;99.90
5246;DHT22;54412;51.206;6.888;2023-03-16T09:53:56;7.60;99.90
5246;DHT22;54412;51.206;6.888;2023-03-16T09:56:32;7.80;99.90
5246;DHT22;54412;51.206;6.888;2023-03-16T09:59:09;7.70;99.90
5246;DHT22;54412;51.206;6.888;2023-03-16T10:04:45;7.80;99.90
5246;DHT22;54412;51.206;6.888;2023-03-16T10:08:10;7.70;99.90
5246;DHT22;54412;51.206;6.888;2023-03-16T10:16:16;8.00;99.90
5246;DHT22;54412;51.206;6.888;2023-03-16T10:18:48;8.00;99.90
5246;DHT22;54412;51.206;6.888;2023-03-16T10:21:18;8.00;99.90
5246;DHT22;54412;51.206;6.888;2023-03-16T10:23:47;8.10;99.90
5246;DHT22;54412;51.206;6.888;2023-03-16T10:26:23;8.40;99.90
5246;DHT22;54412;51.206;6.888;2023-03-16T10:28:55;8.60;99.90
5246;DHT22;54412;51.206;6.888;2023-03-16T10:31:22;8.70;99.90
5246;DHT22;54412;51.206;6.888;2023-03-16T10:33:52;8.50;99.90
5246;DHT22;54412;51.206;6.888;2023-03-16T10:36:32;8.60;99.90
5246;DHT22;54412;51.206;6.888;2023-03-16T10:39:05;8.50;99.90
5246;DHT22;54412;51.206;6.888;2023-03-16T10:41:36;8.50;99.90
5246;DHT22;54412;51.206;6.888;2023-03-16T10:44:24;8.60;99.90
5246;DHT22;54412;51.206;6.888;2023-03-16T10:47:02;8.80;99.90
5246;DHT22;54412;51.206;6.888;2023-03-16T10:49:41;9.20;99.90
5246;DHT22;54412;51.206;6.888;2023-03-16T10:54:56;9.50;99.90
5246;DHT22;54412;51.206;6.888;2023-03-16T10:57:34;9.60;99.90
5246;DHT22;54412;51.206;6.888;2023-03-16T11:02:40;9.70;99.90
5246;DHT22;54412;51.206;6.888;2023-03-16T11:07:49;9.50;99.90
5246;DHT22;54412;51.206;6.888;2023-03-16T11:10:35;9.60;99.90
5246;DHT22;54412;51.206;6.888;2023-03-16T11:13:16;9.70;99.90
5246;DHT22;54412;51.206;6.888;2023-03-16T11:15:45;9.70;99.90
5246;DHT22;54412;51.206;6.888;2023-03-16T11:18:46;9.60;99.90
5246;DHT22;54412;51.206;6.888;2023-03-16T11:21:19;10.00;99.90
5246;DHT22;54412;51.206;6.888;2023-03-16T11:23:55;10.30;99.90
5246;DHT22;54412;51.206;6.888;2023-03-16T11:26:32;10.50;99.90
5246;DHT22;54412;51.206;6.888;2023-03-16T11:29:06;10.90;99.90
5246;DHT22;54412;51.206;6.888;2023-03-16T11:31:53;11.10;99.90
5246;DHT22;54412;51.206;6.888;2023-03-16T11:34:29;10.90;99.90
5246;DHT22;54412;51.206;6.888;2023-03-16T11:42:36;11.80;99.90
5246;DHT22;54412;51.206;6.888;2023-03-16T11:45:16;12.00;99.90
5246;DHT22;54412;51.206;6.888;2023-03-16T11:48:05;11.70;99.90
5246;DHT22;54412;51.206;6.888;2023-03-16T11:51:26;11.70;99.90
5246;DHT22;54412;51.206;6.888;2023-03-16T12:03:48;11.90;99.90
5246;DHT22;54412;51.206;6.888;2023-03-16T12:06:39;12.10;99.90
5246;DHT22;54412;51.206;6.888;2023-03-16T12:12:21;11.90;99.90
5246;DHT22;54412;51.206;6.888;2023-03-16T12:21:38;11.50;99.90
5246;DHT22;54412;51.206;6.888;2023-03-16T12:24:16;11.40;99.90
5246;DHT22;54412;51.206;6.888;2023-03-16T12:26:47;11.20;99.90
5246;DHT22;54412;51.206;6.888;2023-03-16T12:32:20;11.10;99.90
5246;DHT22;54412;51.206;6.888;2023-03-16T12:41:09;10.90;99.90
5246;DHT22;54412;51.206;6.888;2023-03-16T12:43:50;10.90;99.90
5246;DHT22;54412;51.206;6.888;2023-03-16T12:48:57;10.90;99.90
5246;DHT22;54412;51.206;6.888;2023-03-16T12:51:34;11.00;99.90
5246;DHT22;54412;51.206;6.888;2023-03-16T12:54:01;11.00;99.90
5246;DHT22;54412;51.206;6.888;2023-03-16T12:56:31;11.10;99.90
5246;DHT22;54412;51.206;6.888;2023-03-16T12:59:02;11.10;99.90
5246;DHT22;54412;51.206;6.888;2023-03-16T13:01:41;11.20;99.90
5246;DHT22;54412;51.206;6.888;2023-03-16T13:06:48;11.30;99.90
5246;DHT22;54412;51.206;6.888;2023-03-16T13:09:24;11.20;99.90
5246;DHT22;54412;51.206;6.888;2023-03-16T13:11:52;11.30;99.90
5246;DHT22;54412;51.206;6.888;2023-03-16T13:14:40;11.40;99.90
5246;DHT22;54412;51.206;6.888;2023-03-16T13:19:43;11.60;99.90
5246;DHT22;54412;51.206;6.888;2023-03-16T13:24:53;12.20;99.90
5246;DHT22;54412;51.206;6.888;2023-03-16T13:27:31;12.30;99.90
5246;DHT22;54412;51.206;6.888;2023-03-16T13:30:11;12.70;99.90
5246;DHT22;54412;51.206;6.888;2023-03-16T13:32:42;12.90;99.90
5246;DHT22;54412;51.206;6.888;2023-03-16T13:35:16;12.80;99.90
5246;DHT22;54412;51.206;6.888;2023-03-16T13:37:44;13.20;99.90
5246;DHT22;54412;51.206;6.888;2023-03-16T13:40:22;13.40;99.90
5246;DHT22;54412;51.206;6.888;2023-03-16T13:42:51;13.40;99.90
5246;DHT22;54412;51.206;6.888;2023-03-16T13:45:22;13.00;99.90
5246;DHT22;54412;51.206;6.888;2023-03-16T13:47:52;13.10;99.90
5246;DHT22;54412;51.206;6.888;2023-03-16T13:50:19;13.40;99.90
5246;DHT22;54412;51.206;6.888;2023-03-16T13:53:15;13.50;99.90
5246;DHT22;54412;51.206;6.888;2023-03-16T13:55:46;13.20;99.90
5246;DHT22;54412;51.206;6.888;2023-03-16T13:58:25;13.10;99.90
5246;DHT22;54412;51.206;6.888;2023-03-16T14:00:57;13.30;99.90
5246;DHT22;54412;51.206;6.888;2023-03-16T14:03:36;13.30;99.90
5246;DHT22;54412;51.206;6.888;2023-03-16T14:06:05;13.30;99.90
5246;DHT22;54412;51.206;6.888;2023-03-16T14:08:31;13.20;99.90
5246;DHT22;54412;51.206;6.888;2023-03-16T14:10:59;13.30;99.90
5246;DHT22;54412;51.206;6.888;2023-03-16T14:16:02;13.20;99.90
5246;DHT22;54412;51.206;6.888;2023-03-16T14:18:40;13.10;99.90
5246;DHT22;54412;51.206;6.888;2023-03-16T14:21:16;13.30;99.90
5246;DHT22;54412;51.206;6.888;2023-03-16T14:23:47;13.50;99.90
5246;DHT22;54412;51.206;6.888;2023-03-16T14:26:18;13.20;99.90
5246;DHT22;54412;51.206;6.888;2023-03-16T14:31:38;13.40;99.90
5246;DHT22;54412;51.206;6.888;2023-03-16T14:34:18;13.40;99.90
5246;DHT22;54412;51.206;6.888;2023-03-16T14:37:03;13.60;99.80
5246;DHT22;54412;51.206;6.888;2023-03-16T14:39:30;13.50;99.90
5246;DHT22;54412;51.206;6.888;2023-03-16T14:41:56;13.30;99.90
5246;DHT22;54412;51.206;6.888;2023-03-16T14:44:25;13.10;99.90
5246;DHT22;54412;51.206;6.888;2023-03-16T14:46:59;13.20;99.90
5246;DHT22;54412;51.206;6.888;2023-03-16T14:49:33;13.00;99.90
5246;DHT22;54412;51.206;6.888;2023-03-16T14:52:07;12.90;99.90
5246;DHT22;54412;51.206;6.888;2023-03-16T14:54:43;13.00;99.90
5246;DHT22;54412;51.206;6.888;2023-03-16T14:57:15;13.00;99.90
5246;DHT22;54412;51.206;6.888;2023-03-16T14:59:42;12.90;99.90
5246;DHT22;54412;51.206;6.888;2023-03-16T15:02:21;13.00;99.90
5246;DHT22;54412;51.206;6.888;2023-03-16T15:04:57;13.10;99.90
5246;DHT22;54412;51.206;6.888;2023-03-16T15:07:27;13.00;99.90
5246;DHT22;54412;51.206;6.888;2023-03-16T15:12:37;13.00;99.90
5246;DHT22;54412;51.206;6.888;2023-03-16T15:15:13;12.80;99.90
5246;DHT22;54412;51.206;6.888;2023-03-16T15:17:51;12.80;99.90
5246;DHT22;54412;51.206;6.888;2023-03-16T15:20:32;12.70;99.90
5246;DHT22;54412;51.206;6.888;2023-03-16T15:23:03;12.80;99.90
5246;DHT22;54412;51.206;6.888;2023-03-16T15:25:33;12.90;99.90
5246;DHT22;54412;51.206;6.888;2023-03-16T15:28:21;12.80;99.90
5246;DHT22;54412;51.206;6.888;2023-03-16T15:30:53;12.70;99.90
5246;DHT22;54412;51.206;6.888;2023-03-16T15:33:22;12.70;99.90
5246;DHT22;54412;51.206;6.888;2023-03-16T15:35:49;12.60;99.90
5246;DHT22;54412;51.206;6.888;2023-03-16T15:40:55;12.60;99.90
5246;DHT22;54412;51.206;6.888;2023-03-16T15:43:23;12.60;99.90
5246;DHT22;54412;51.206;6.888;2023-03-16T15:45:52;12.70;99.90
5246;DHT22;54412;51.206;6.888;2023-03-16T15:48:19;12.50;99.90
5246;DHT22;54412;51.206;6.888;2023-03-16T15:50:59;12.60;99.90
5246;DHT22;54412;51.206;6.888;2023-03-16T15:56:06;12.40;99.90
5246;DHT22;54412;51.206;6.888;2023-03-16T15:58:36;12.50;99.90
5246;DHT22;54412;51.206;6.888;2023-03-16T16:01:05;12.40;99.90
5246;DHT22;54412;51.206;6.888;2023-03-16T16:03:33;12.30;99.90
5246;DHT22;54412;51.206;6.888;2023-03-16T16:05:59;12.30;99.90
5246;DHT22;54412;51.206;6.888;2023-03-16T16:08:25;12.20;99.90
5246;DHT22;54412;51.206;6.888;2023-03-16T16:10:51;12.20;99.90
5246;DHT22;54412;51.206;6.888;2023-03-16T16:13:27;12.20;99.90
5246;DHT22;54412;51.206;6.888;2023-03-16T16:15:55;12.10;99.90
5246;DHT22;54412;51.206;6.888;2023-03-16T16:18:48;12.00;99.90
5246;DHT22;54412;51.206;6.888;2023-03-16T16:21:20;12.00;99.90
5246;DHT22;54412;51.206;6.888;2023-03-16T16:23:49;11.90;99.90
5246;DHT22;54412;51.206;6.888;2023-03-16T16:26:26;11.90;99.90
5246;DHT22;54412;51.206;6.888;2023-03-16T16:28:56;11.90;99.90
5246;DHT22;54412;51.206;6.888;2023-03-16T16:31:27;11.80;99.90
5246;DHT22;54412;51.206;6.888;2023-03-16T16:33:55;11.90;99.90
5246;DHT22;54412;51.206;6.888;2023-03-16T16:36:27;11.80;99.90
5246;DHT22;54412;51.206;6.888;2023-03-16T16:38:56;11.70;99.90
5246;DHT22;54412;51.206;6.888;2023-03-16T16:41:29;11.70;99.90
5246;DHT22;54412;51.206;6.888;2023-03-16T16:43:57;11.70;99.90
5246;DHT22;54412;51.206;6.888;2023-03-16T16:46:29;11.70;99.90
5246;DHT22;54412;51.206;6.888;2023-03-16T16:49:04;11.70;99.90
5246;DHT22;54412;51.206;6.888;2023-03-16T16:51:34;11.70;99.90
5246;DHT22;54412;51.206;6.888;2023-03-16T16:54:00;11.60;99.90
5246;DHT22;54412;51.206;6.888;2023-03-16T16:56:31;11.60;99.90
5246;DHT22;54412;51.206;6.888;2023-03-16T16:59:14;11.50;99.90
5246;DHT22;54412;51.206;6.888;2023-03-16T17:01:43;11.50;99.90
5246;DHT22;54412;51.206;6.888;2023-03-16T17:04:13;11.50;99.90
5246;DHT22;54412;51.206;6.888;2023-03-16T17:06:44;11.50;99.90
5246;DHT22;54412;51.206;6.888;2023-03-16T17:09:11;11.50;99.90
5246;DHT22;54412;51.206;6.888;2023-03-16T17:11:40;11.40;99.90
5246;DHT22;54412;51.206;6.888;2023-03-16T17:14:07;11.40;99.90
5246;DHT22;54412;51.206;6.888;2023-03-16T17:16:35;11.40;99.90
5246;DHT22;54412;51.206;6.888;2023-03-16T17:19:04;11.40;99.90
5246;DHT22;54412;51.206;6.888;2023-03-16T17:21:31;11.40;99.90
5246;DHT22;54412;51.206;6.888;2023-03-16T17:23:57;11.40;99.90
5246;DHT22;54412;51.206;6.888;2023-03-16T17:26:27;11.30;99.90
5246;DHT22;54412;51.206;6.888;2023-03-16T17:29:13;11.30;99.90
5246;DHT22;54412;51.206;6.888;2023-03-16T17:31:50;11.30;99.90
5246;DHT22;54412;51.206;6.888;2023-03-16T17:34:18;11.20;99.90
5246;DHT22;54412;51.206;6.888;2023-03-16T17:36:45;11.20;99.90
5246;DHT22;54412;51.206;6.888;2023-03-16T17:41:55;11.20;99.90
5246;DHT22;54412;51.206;6.888;2023-03-16T17:44:21;11.10;99.90
5246;DHT22;54412;51.206;6.888;2023-03-16T17:46:47;11.10;99.90
5246;DHT22;54412;51.206;6.888;2023-03-16T17:49:14;11.10;99.90
5246;DHT22;54412;51.206;6.888;2023-03-16T17:51:45;11.10;99.90
5246;DHT22;54412;51.206;6.888;2023-03-16T17:54:11;11.10;99.90